sensor_id;sensor_type;location;lat;lon;timestamp;P1;durP1;ratioP1;P2;durP2;ratioP2
53545;SDS011;39432;51.902;10.844;2024-03-23T00:53:46;6.03;;;2.55;;
53545;SDS011;39432;51.902;10.844;2024-03-23T00:56:12;9.65;;;2.75;;
53545;SDS011;39432;51.902;10.844;2024-03-23T00:58:41;6.03;;;2.55;;
53545;SDS011;39432;51.902;10.844;2024-03-23T01:01:08;6.78;;;2.75;;
53545;SDS011;39432;51.902;10.844;2024-03-23T01:03:35;5.70;;;2.67;;
53545;SDS011;39432;51.902;10.844;2024-03-23T01:06:04;8.25;;;2.75;;
53545;SDS011;39432;51.902;10.844;2024-03-23T01:08:35;8.02;;;3.00;;
53545;SDS011;39432;51.902;10.844;2024-03-23T01:11:06;10.02;;;3.10;;
53545;SDS011;39432;51.902;10.844;2024-03-23T01:13:41;7.93;;;2.97;;
53545;SDS011;39432;51.902;10.844;2024-03-23T01:16:07;7.18;;;3.33;;
53545;SDS011;39432;51.902;10.844;2024-03-23T01:18:34;6.28;;;3.58;;
53545;SDS011;39432;51.902;10.844;2024-03-23T01:21:02;8.48;;;3.60;;
53545;SDS011;39432;51.902;10.844;2024-03-23T01:23:30;10.02;;;3.60;;
53545;SDS011;39432;51.902;10.844;2024-03-23T01:26:00;11.20;;;3.95;;
53545;SDS011;39432;51.902;10.844;2024-03-23T01:28:26;16.70;;;4.30;;
53545;SDS011;39432;51.902;10.844;2024-03-23T01:30:54;13.43;;;4.25;;
53545;SDS011;39432;51.902;10.844;2024-03-23T01:33:23;9.82;;;4.50;;
53545;SDS011;39432;51.902;10.844;2024-03-23T01:35:49;11.18;;;4.68;;
53545;SDS011;39432;51.902;10.844;2024-03-23T01:38:15;9.77;;;4.88;;
53545;SDS011;39432;51.902;10.844;2024-03-23T01:40:42;8.40;;;4.60;;
53545;SDS011;39432;51.902;10.844;2024-03-23T01:43:11;9.65;;;4.53;;
53545;SDS011;39432;51.902;10.844;2024-03-23T01:45:37;11.18;;;4.85;;
53545;SDS011;39432;51.902;10.844;2024-03-23T01:48:07;11.90;;;5.15;;
53545;SDS011;39432;51.902;10.844;2024-03-23T01:50:34;17.48;;;5.78;;
53545;SDS011;39432;51.902;10.844;2024-03-23T01:53:01;13.07;;;5.50;;
53545;SDS011;39432;51.902;10.844;2024-03-23T01:55:28;21.27;;;6.40;;
53545;SDS011;39432;51.902;10.844;2024-03-23T01:57:56;13.38;;;6.00;;
53545;SDS011;39432;51.902;10.844;2024-03-23T02:00:25;13.10;;;5.60;;
53545;SDS011;39432;51.902;10.844;2024-03-23T02:02:55;10.40;;;6.20;;
53545;SDS011;39432;51.902;10.844;2024-03-23T02:05:23;15.27;;;7.65;;
53545;SDS011;39432;51.902;10.844;2024-03-23T02:07:51;14.15;;;7.00;;
53545;SDS011;39432;51.902;10.844;2024-03-23T02:10:19;11.10;;;5.53;;
53545;SDS011;39432;51.902;10.844;2024-03-23T02:12:46;11.55;;;5.07;;
53545;SDS011;39432;51.902;10.844;2024-03-23T02:15:13;12.63;;;5.85;;
53545;SDS011;39432;51.902;10.844;2024-03-23T02:17:44;13.40;;;5.75;;
53545;SDS011;39432;51.902;10.844;2024-03-23T02:20:11;9.82;;;4.60;;
53545;SDS011;39432;51.902;10.844;2024-03-23T02:22:39;10.07;;;4.00;;
53545;SDS011;39432;51.902;10.844;2024-03-23T02:25:08;7.32;;;3.40;;
53545;SDS011;39432;51.902;10.844;2024-03-23T02:27:35;6.68;;;2.95;;
53545;SDS011;39432;51.902;10.844;2024-03-23T02:30:02;7.72;;;3.05;;
53545;SDS011;39432;51.902;10.844;2024-03-23T02:32:30;6.55;;;3.15;;
53545;SDS011;39432;51.902;10.844;2024-03-23T02:34:57;6.40;;;3.53;;
53545;SDS011;39432;51.902;10.844;2024-03-23T02:37:24;12.82;;;3.38;;
53545;SDS011;39432;51.902;10.844;2024-03-23T02:39:52;8.50;;;3.97;;
53545;SDS011;39432;51.902;10.844;2024-03-23T02:42:23;10.85;;;3.38;;
53545;SDS011;39432;51.902;10.844;2024-03-23T02:44:51;6.53;;;3.00;;
53545;SDS011;39432;51.902;10.844;2024-03-23T02:47:18;9.25;;;3.60;;
53545;SDS011;39432;51.902;10.844;2024-03-23T02:49:44;11.95;;;3.47;;
53545;SDS011;39432;51.902;10.844;2024-03-23T02:52:14;18.10;;;3.58;;
53545;SDS011;39432;51.902;10.844;2024-03-23T02:54:41;9.73;;;3.90;;
53545;SDS011;39432;51.902;10.844;2024-03-23T02:57:09;10.57;;;3.60;;
53545;SDS011;39432;51.902;10.844;2024-03-23T02:59:38;8.63;;;3.63;;
53545;SDS011;39432;51.902;10.844;2024-03-23T03:02:05;13.55;;;4.07;;
53545;SDS011;39432;51.902;10.844;2024-03-23T03:04:32;11.18;;;4.32;;
53545;SDS011;39432;51.902;10.844;2024-03-23T03:07:00;9.82;;;3.90;;
53545;SDS011;39432;51.902;10.844;2024-03-23T03:09:26;9.23;;;4.63;;
53545;SDS011;39432;51.902;10.844;2024-03-23T03:11:55;14.68;;;4.85;;
53545;SDS011;39432;51.902;10.844;2024-03-23T03:14:23;13.35;;;4.90;;
53545;SDS011;39432;51.902;10.844;2024-03-23T03:16:56;7.72;;;3.28;;
53545;SDS011;39432;51.902;10.844;2024-03-23T03:19:23;7.65;;;3.28;;
53545;SDS011;39432;51.902;10.844;2024-03-23T03:21:52;6.95;;;3.40;;
53545;SDS011;39432;51.902;10.844;2024-03-23T03:24:20;8.00;;;3.55;;
53545;SDS011;39432;51.902;10.844;2024-03-23T03:26:48;18.45;;;3.90;;
53545;SDS011;39432;51.902;10.844;2024-03-23T03:29:15;8.40;;;3.30;;
53545;SDS011;39432;51.902;10.844;2024-03-23T03:31:43;11.00;;;3.85;;
53545;SDS011;39432;51.902;10.844;2024-03-23T03:34:13;8.98;;;4.00;;
53545;SDS011;39432;51.902;10.844;2024-03-23T03:36:39;13.40;;;4.80;;
53545;SDS011;39432;51.902;10.844;2024-03-23T03:39:10;8.30;;;4.20;;
53545;SDS011;39432;51.902;10.844;2024-03-23T03:41:37;12.32;;;4.50;;
53545;SDS011;39432;51.902;10.844;2024-03-23T03:44:04;8.48;;;3.92;;
53545;SDS011;39432;51.902;10.844;2024-03-23T03:46:33;11.68;;;4.38;;
53545;SDS011;39432;51.902;10.844;2024-03-23T03:49:02;9.73;;;4.10;;
53545;SDS011;39432;51.902;10.844;2024-03-23T03:51:32;8.70;;;4.57;;
53545;SDS011;39432;51.902;10.844;2024-03-23T03:54:00;10.40;;;5.07;;
53545;SDS011;39432;51.902;10.844;2024-03-23T03:56:29;11.82;;;5.15;;
53545;SDS011;39432;51.902;10.844;2024-03-23T03:58:55;7.82;;;4.65;;
53545;SDS011;39432;51.902;10.844;2024-03-23T04:01:24;9.65;;;4.70;;
53545;SDS011;39432;51.902;10.844;2024-03-23T04:03:51;12.07;;;5.05;;
53545;SDS011;39432;51.902;10.844;2024-03-23T04:06:20;9.00;;;5.40;;
53545;SDS011;39432;51.902;10.844;2024-03-23T04:08:52;12.20;;;6.30;;
53545;SDS011;39432;51.902;10.844;2024-03-23T04:11:19;13.13;;;6.90;;
53545;SDS011;39432;51.902;10.844;2024-03-23T04:13:46;11.23;;;6.68;;
53545;SDS011;39432;51.902;10.844;2024-03-23T04:16:13;9.82;;;7.13;;
53545;SDS011;39432;51.902;10.844;2024-03-23T04:18:51;11.95;;;8.05;;
53545;SDS011;39432;51.902;10.844;2024-03-23T04:21:18;10.20;;;7.13;;
53545;SDS011;39432;51.902;10.844;2024-03-23T04:23:48;11.23;;;7.22;;
53545;SDS011;39432;51.902;10.844;2024-03-23T04:26:22;10.25;;;6.68;;
53545;SDS011;39432;51.902;10.844;2024-03-23T04:28:48;9.27;;;6.40;;
53545;SDS011;39432;51.902;10.844;2024-03-23T04:31:15;8.82;;;5.18;;
53545;SDS011;39432;51.902;10.844;2024-03-23T04:33:46;12.68;;;5.40;;
53545;SDS011;39432;51.902;10.844;2024-03-23T04:36:12;9.15;;;4.63;;
53545;SDS011;39432;51.902;10.844;2024-03-23T04:38:40;8.02;;;4.55;;
53545;SDS011;39432;51.902;10.844;2024-03-23T04:41:07;10.10;;;4.60;;
53545;SDS011;39432;51.902;10.844;2024-03-23T04:43:38;7.45;;;3.90;;
53545;SDS011;39432;51.902;10.844;2024-03-23T04:46:20;8.30;;;4.93;;
53545;SDS011;39432;51.902;10.844;2024-03-23T04:48:47;6.97;;;4.68;;
53545;SDS011;39432;51.902;10.844;2024-03-23T04:51:20;11.65;;;4.70;;
53545;SDS011;39432;51.902;10.844;2024-03-23T04:53:48;7.13;;;3.63;;
53545;SDS011;39432;51.902;10.844;2024-03-23T04:56:14;10.68;;;3.42;;
53545;SDS011;39432;51.902;10.844;2024-03-23T04:58:44;10.88;;;4.00;;
53545;SDS011;39432;51.902;10.844;2024-03-23T05:01:10;6.50;;;3.00;;
53545;SDS011;39432;51.902;10.844;2024-03-23T05:03:39;6.43;;;2.90;;
53545;SDS011;39432;51.902;10.844;2024-03-23T05:06:05;5.32;;;1.80;;
53545;SDS011;39432;51.902;10.844;2024-03-23T05:08:32;3.60;;;1.67;;
53545;SDS011;39432;51.902;10.844;2024-03-23T05:11:01;4.20;;;1.98;;
53545;SDS011;39432;51.902;10.844;2024-03-23T05:13:30;4.20;;;2.00;;
53545;SDS011;39432;51.902;10.844;2024-03-23T05:16:02;3.83;;;2.08;;
53545;SDS011;39432;51.902;10.844;2024-03-23T05:18:31;3.60;;;2.10;;
53545;SDS011;39432;51.902;10.844;2024-03-23T05:20:59;4.05;;;2.28;;
53545;SDS011;39432;51.902;10.844;2024-03-23T05:23:26;5.03;;;2.88;;
53545;SDS011;39432;51.902;10.844;2024-03-23T05:25:53;6.15;;;2.70;;
53545;SDS011;39432;51.902;10.844;2024-03-23T05:28:22;6.13;;;2.85;;
53545;SDS011;39432;51.902;10.844;2024-03-23T05:30:52;6.03;;;3.15;;
53545;SDS011;39432;51.902;10.844;2024-03-23T05:33:23;7.88;;;3.47;;
53545;SDS011;39432;51.902;10.844;2024-03-23T05:35:55;6.57;;;3.63;;
53545;SDS011;39432;51.902;10.844;2024-03-23T05:38:22;10.68;;;4.03;;
53545;SDS011;39432;51.902;10.844;2024-03-23T05:40:53;10.02;;;4.03;;
53545;SDS011;39432;51.902;10.844;2024-03-23T05:43:24;5.80;;;3.97;;
53545;SDS011;39432;51.902;10.844;2024-03-23T05:45:54;7.72;;;3.58;;
53545;SDS011;39432;51.902;10.844;2024-03-23T05:48:27;6.88;;;3.97;;
53545;SDS011;39432;51.902;10.844;2024-03-23T05:50:57;6.25;;;3.55;;
53545;SDS011;39432;51.902;10.844;2024-03-23T05:53:24;6.00;;;2.67;;
53545;SDS011;39432;51.902;10.844;2024-03-23T05:55:59;4.53;;;2.95;;
53545;SDS011;39432;51.902;10.844;2024-03-23T05:58:27;4.88;;;2.40;;
53545;SDS011;39432;51.902;10.844;2024-03-23T06:00:56;4.18;;;2.70;;
53545;SDS011;39432;51.902;10.844;2024-03-23T06:03:26;6.25;;;3.72;;
53545;SDS011;39432;51.902;10.844;2024-03-23T06:05:53;8.50;;;3.40;;
53545;SDS011;39432;51.902;10.844;2024-03-23T06:08:23;5.30;;;3.33;;
53545;SDS011;39432;51.902;10.844;2024-03-23T06:10:50;8.88;;;3.35;;
53545;SDS011;39432;51.902;10.844;2024-03-23T06:13:18;6.05;;;3.05;;
53545;SDS011;39432;51.902;10.844;2024-03-23T06:15:45;6.75;;;3.85;;
53545;SDS011;39432;51.902;10.844;2024-03-23T06:18:12;7.25;;;3.30;;
53545;SDS011;39432;51.902;10.844;2024-03-23T06:20:41;7.53;;;2.90;;
53545;SDS011;39432;51.902;10.844;2024-03-23T06:23:08;5.40;;;2.95;;
53545;SDS011;39432;51.902;10.844;2024-03-23T06:25:35;8.25;;;3.10;;
53545;SDS011;39432;51.902;10.844;2024-03-23T06:28:02;6.35;;;3.25;;
53545;SDS011;39432;51.902;10.844;2024-03-23T06:30:28;4.80;;;2.90;;
53545;SDS011;39432;51.902;10.844;2024-03-23T06:32:55;6.72;;;3.25;;
53545;SDS011;39432;51.902;10.844;2024-03-23T06:35:21;7.50;;;3.55;;
53545;SDS011;39432;51.902;10.844;2024-03-23T06:37:50;11.48;;;3.85;;
53545;SDS011;39432;51.902;10.844;2024-03-23T06:40:19;5.90;;;3.10;;
53545;SDS011;39432;51.902;10.844;2024-03-23T06:42:49;6.72;;;3.50;;
53545;SDS011;39432;51.902;10.844;2024-03-23T06:45:16;4.45;;;2.42;;
53545;SDS011;39432;51.902;10.844;2024-03-23T06:47:46;5.22;;;2.45;;
53545;SDS011;39432;51.902;10.844;2024-03-23T06:50:13;5.88;;;2.45;;
53545;SDS011;39432;51.902;10.844;2024-03-23T06:52:41;3.53;;;1.77;;
53545;SDS011;39432;51.902;10.844;2024-03-23T06:55:12;5.13;;;1.70;;
53545;SDS011;39432;51.902;10.844;2024-03-23T06:57:40;4.15;;;1.50;;
53545;SDS011;39432;51.902;10.844;2024-03-23T07:00:17;4.38;;;1.20;;
53545;SDS011;39432;51.902;10.844;2024-03-23T07:02:43;1.60;;;0.85;;
53545;SDS011;39432;51.902;10.844;2024-03-23T07:05:11;4.00;;;1.23;;
53545;SDS011;39432;51.902;10.844;2024-03-23T07:07:38;3.45;;;1.20;;
53545;SDS011;39432;51.902;10.844;2024-03-23T07:10:08;3.97;;;1.40;;
53545;SDS011;39432;51.902;10.844;2024-03-23T07:12:39;1.95;;;1.10;;
53545;SDS011;39432;51.902;10.844;2024-03-23T07:15:06;2.50;;;1.00;;
53545;SDS011;39432;51.902;10.844;2024-03-23T07:17:33;2.92;;;1.30;;
53545;SDS011;39432;51.902;10.844;2024-03-23T07:20:00;5.05;;;1.35;;
53545;SDS011;39432;51.902;10.844;2024-03-23T07:22:28;3.28;;;1.35;;
53545;SDS011;39432;51.902;10.844;2024-03-23T07:25:00;4.15;;;1.88;;
53545;SDS011;39432;51.902;10.844;2024-03-23T07:27:31;4.72;;;1.50;;
53545;SDS011;39432;51.902;10.844;2024-03-23T07:30:01;10.00;;;1.95;;
53545;SDS011;39432;51.902;10.844;2024-03-23T07:32:27;5.95;;;1.95;;
53545;SDS011;39432;51.902;10.844;2024-03-23T07:34:53;8.27;;;2.33;;
53545;SDS011;39432;51.902;10.844;2024-03-23T07:37:20;7.20;;;2.80;;
53545;SDS011;39432;51.902;10.844;2024-03-23T07:39:47;10.25;;;3.50;;
53545;SDS011;39432;51.902;10.844;2024-03-23T07:42:14;8.90;;;2.95;;
53545;SDS011;39432;51.902;10.844;2024-03-23T07:44:49;19.48;;;3.83;;
53545;SDS011;39432;51.902;10.844;2024-03-23T07:47:25;7.82;;;2.47;;
53545;SDS011;39432;51.902;10.844;2024-03-23T07:49:52;11.80;;;2.70;;
53545;SDS011;39432;51.902;10.844;2024-03-23T07:52:18;7.50;;;2.05;;
53545;SDS011;39432;51.902;10.844;2024-03-23T07:54:44;7.75;;;2.28;;
53545;SDS011;39432;51.902;10.844;2024-03-23T07:57:13;5.70;;;1.80;;
53545;SDS011;39432;51.902;10.844;2024-03-23T07:59:39;8.80;;;2.20;;
53545;SDS011;39432;51.902;10.844;2024-03-23T08:02:08;11.40;;;2.72;;
53545;SDS011;39432;51.902;10.844;2024-03-23T08:04:34;7.63;;;2.30;;
53545;SDS011;39432;51.902;10.844;2024-03-23T08:07:00;6.43;;;2.13;;
53545;SDS011;39432;51.902;10.844;2024-03-23T08:09:29;6.57;;;2.85;;
53545;SDS011;39432;51.902;10.844;2024-03-23T08:14:31;10.45;;;3.55;;
53545;SDS011;39432;51.902;10.844;2024-03-23T08:16:59;5.55;;;2.50;;
53545;SDS011;39432;51.902;10.844;2024-03-23T08:19:31;4.47;;;1.75;;
53545;SDS011;39432;51.902;10.844;2024-03-23T08:22:01;8.50;;;2.20;;
53545;SDS011;39432;51.902;10.844;2024-03-23T08:24:32;6.10;;;1.58;;
53545;SDS011;39432;51.902;10.844;2024-03-23T08:27:03;7.28;;;1.50;;
53545;SDS011;39432;51.902;10.844;2024-03-23T08:29:35;6.70;;;1.20;;
53545;SDS011;39432;51.902;10.844;2024-03-23T08:32:03;10.18;;;1.40;;
53545;SDS011;39432;51.902;10.844;2024-03-23T08:34:32;6.90;;;1.42;;
53545;SDS011;39432;51.902;10.844;2024-03-23T08:36:59;6.68;;;1.42;;
53545;SDS011;39432;51.902;10.844;2024-03-23T08:39:28;6.60;;;1.50;;
53545;SDS011;39432;51.902;10.844;2024-03-23T08:41:54;4.75;;;1.23;;
53545;SDS011;39432;51.902;10.844;2024-03-23T08:44:20;9.13;;;2.08;;
53545;SDS011;39432;51.902;10.844;2024-03-23T08:46:47;7.72;;;1.85;;
53545;SDS011;39432;51.902;10.844;2024-03-23T08:49:13;7.78;;;1.60;;
53545;SDS011;39432;51.902;10.844;2024-03-23T08:51:43;7.70;;;1.70;;
53545;SDS011;39432;51.902;10.844;2024-03-23T08:54:09;11.55;;;1.83;;
53545;SDS011;39432;51.902;10.844;2024-03-23T08:56:35;7.00;;;1.58;;
53545;SDS011;39432;51.902;10.844;2024-03-23T08:59:02;8.02;;;1.67;;
53545;SDS011;39432;51.902;10.844;2024-03-23T09:01:29;7.90;;;1.48;;
53545;SDS011;39432;51.902;10.844;2024-03-23T09:03:56;10.15;;;1.50;;
53545;SDS011;39432;51.902;10.844;2024-03-23T09:06:22;5.25;;;1.67;;
53545;SDS011;39432;51.902;10.844;2024-03-23T09:08:51;4.00;;;1.40;;
53545;SDS011;39432;51.902;10.844;2024-03-23T09:11:18;5.20;;;1.42;;
53545;SDS011;39432;51.902;10.844;2024-03-23T09:13:44;5.65;;;1.27;;
53545;SDS011;39432;51.902;10.844;2024-03-23T09:16:10;6.05;;;1.42;;
53545;SDS011;39432;51.902;10.844;2024-03-23T09:18:42;4.68;;;1.10;;
53545;SDS011;39432;51.902;10.844;2024-03-23T09:21:10;6.18;;;1.75;;
53545;SDS011;39432;51.902;10.844;2024-03-23T09:23:38;8.43;;;1.70;;
53545;SDS011;39432;51.902;10.844;2024-03-23T09:26:08;4.05;;;1.35;;
53545;SDS011;39432;51.902;10.844;2024-03-23T09:28:34;9.60;;;1.70;;
53545;SDS011;39432;51.902;10.844;2024-03-23T09:31:04;4.65;;;1.52;;
53545;SDS011;39432;51.902;10.844;2024-03-23T09:33:31;8.85;;;1.65;;
53545;SDS011;39432;51.902;10.844;2024-03-23T09:36:02;7.07;;;1.80;;
53545;SDS011;39432;51.902;10.844;2024-03-23T09:38:29;6.90;;;1.73;;
53545;SDS011;39432;51.902;10.844;2024-03-23T09:40:56;5.75;;;1.67;;
53545;SDS011;39432;51.902;10.844;2024-03-23T09:43:26;6.68;;;1.60;;
53545;SDS011;39432;51.902;10.844;2024-03-23T09:45:53;9.38;;;2.10;;
53545;SDS011;39432;51.902;10.844;2024-03-23T09:48:19;9.02;;;1.90;;
53545;SDS011;39432;51.902;10.844;2024-03-23T09:50:46;7.30;;;2.05;;
53545;SDS011;39432;51.902;10.844;2024-03-23T09:53:13;7.28;;;1.83;;
53545;SDS011;39432;51.902;10.844;2024-03-23T09:55:40;7.50;;;1.60;;
53545;SDS011;39432;51.902;10.844;2024-03-23T09:58:08;4.93;;;1.67;;
53545;SDS011;39432;51.902;10.844;2024-03-23T10:00:42;8.10;;;2.25;;
53545;SDS011;39432;51.902;10.844;2024-03-23T10:03:10;5.80;;;1.80;;
53545;SDS011;39432;51.902;10.844;2024-03-23T10:05:37;10.23;;;1.92;;
53545;SDS011;39432;51.902;10.844;2024-03-23T10:08:16;4.85;;;1.40;;
53545;SDS011;39432;51.902;10.844;2024-03-23T10:10:44;4.85;;;1.42;;
53545;SDS011;39432;51.902;10.844;2024-03-23T10:13:26;6.57;;;1.42;;
53545;SDS011;39432;51.902;10.844;2024-03-23T10:16:02;6.20;;;1.30;;
53545;SDS011;39432;51.902;10.844;2024-03-23T10:18:29;3.00;;;1.30;;
53545;SDS011;39432;51.902;10.844;2024-03-23T10:21:06;5.80;;;2.08;;
53545;SDS011;39432;51.902;10.844;2024-03-23T10:23:34;5.40;;;1.55;;
53545;SDS011;39432;51.902;10.844;2024-03-23T10:26:12;3.45;;;1.23;;
53545;SDS011;39432;51.902;10.844;2024-03-23T10:28:47;4.90;;;1.33;;
53545;SDS011;39432;51.902;10.844;2024-03-23T10:31:20;3.80;;;1.10;;
53545;SDS011;39432;51.902;10.844;2024-03-23T10:33:47;4.47;;;1.40;;
53545;SDS011;39432;51.902;10.844;2024-03-23T10:36:14;5.18;;;2.03;;
53545;SDS011;39432;51.902;10.844;2024-03-23T10:38:50;12.10;;;2.05;;
53545;SDS011;39432;51.902;10.844;2024-03-23T10:41:17;5.82;;;1.80;;
53545;SDS011;39432;51.902;10.844;2024-03-23T10:43:45;6.55;;;1.70;;
53545;SDS011;39432;51.902;10.844;2024-03-23T10:46:12;7.45;;;1.67;;
53545;SDS011;39432;51.902;10.844;2024-03-23T10:48:41;8.05;;;2.40;;
53545;SDS011;39432;51.902;10.844;2024-03-23T10:51:08;9.30;;;2.42;;
53545;SDS011;39432;51.902;10.844;2024-03-23T10:53:37;5.38;;;2.42;;
53545;SDS011;39432;51.902;10.844;2024-03-23T10:56:06;10.55;;;2.30;;
53545;SDS011;39432;51.902;10.844;2024-03-23T10:58:37;6.93;;;2.10;;
53545;SDS011;39432;51.902;10.844;2024-03-23T11:01:05;11.50;;;2.75;;
53545;SDS011;39432;51.902;10.844;2024-03-23T11:03:33;7.45;;;2.67;;
53545;SDS011;39432;51.902;10.844;2024-03-23T11:06:04;9.73;;;2.47;;
53545;SDS011;39432;51.902;10.844;2024-03-23T11:08:32;8.45;;;2.75;;
53545;SDS011;39432;51.902;10.844;2024-03-23T11:13:47;7.68;;;2.13;;
53545;SDS011;39432;51.902;10.844;2024-03-23T11:16:15;5.93;;;1.95;;
53545;SDS011;39432;51.902;10.844;2024-03-23T11:18:43;5.88;;;1.75;;
53545;SDS011;39432;51.902;10.844;2024-03-23T11:21:13;4.63;;;2.00;;
53545;SDS011;39432;51.902;10.844;2024-03-23T11:24:15;10.77;;;2.20;;
53545;SDS011;39432;51.902;10.844;2024-03-23T11:26:42;7.00;;;1.83;;
53545;SDS011;39432;51.902;10.844;2024-03-23T11:29:09;5.53;;;1.60;;
53545;SDS011;39432;51.902;10.844;2024-03-23T11:31:39;2.70;;;1.23;;
53545;SDS011;39432;51.902;10.844;2024-03-23T11:34:22;2.72;;;1.25;;
53545;SDS011;39432;51.902;10.844;2024-03-23T11:36:53;6.93;;;1.83;;
53545;SDS011;39432;51.902;10.844;2024-03-23T11:39:30;3.08;;;1.42;;
53545;SDS011;39432;51.902;10.844;2024-03-23T11:41:56;7.68;;;2.08;;
53545;SDS011;39432;51.902;10.844;2024-03-23T11:44:26;4.38;;;1.50;;
53545;SDS011;39432;51.902;10.844;2024-03-23T11:46:53;6.57;;;2.13;;
53545;SDS011;39432;51.902;10.844;2024-03-23T11:49:21;9.75;;;2.20;;
53545;SDS011;39432;51.902;10.844;2024-03-23T11:51:51;9.57;;;2.58;;
53545;SDS011;39432;51.902;10.844;2024-03-23T11:54:22;8.55;;;1.60;;
53545;SDS011;39432;51.902;10.844;2024-03-23T11:56:55;3.42;;;1.23;;
53545;SDS011;39432;51.902;10.844;2024-03-23T11:59:32;3.03;;;0.80;;
53545;SDS011;39432;51.902;10.844;2024-03-23T12:02:05;2.67;;;0.90;;
53545;SDS011;39432;51.902;10.844;2024-03-23T12:04:34;3.83;;;0.70;;
53545;SDS011;39432;51.902;10.844;2024-03-23T12:07:13;5.13;;;0.85;;
53545;SDS011;39432;51.902;10.844;2024-03-23T12:09:41;3.25;;;0.90;;
53545;SDS011;39432;51.902;10.844;2024-03-23T12:12:08;4.72;;;0.95;;
53545;SDS011;39432;51.902;10.844;2024-03-23T12:14:37;2.22;;;0.70;;
53545;SDS011;39432;51.902;10.844;2024-03-23T12:17:07;2.78;;;0.70;;
53545;SDS011;39432;51.902;10.844;2024-03-23T12:19:35;10.23;;;1.10;;
53545;SDS011;39432;51.902;10.844;2024-03-23T12:22:05;14.88;;;1.50;;
53545;SDS011;39432;51.902;10.844;2024-03-23T12:24:35;3.17;;;1.25;;
53545;SDS011;39432;51.902;10.844;2024-03-23T12:27:05;4.22;;;1.40;;
53545;SDS011;39432;51.902;10.844;2024-03-23T12:29:34;7.85;;;1.67;;
53545;SDS011;39432;51.902;10.844;2024-03-23T12:32:02;7.50;;;1.60;;
53545;SDS011;39432;51.902;10.844;2024-03-23T12:34:29;3.38;;;1.63;;
53545;SDS011;39432;51.902;10.844;2024-03-23T12:36:56;4.07;;;1.40;;
53545;SDS011;39432;51.902;10.844;2024-03-23T12:39:28;2.13;;;1.10;;
53545;SDS011;39432;51.902;10.844;2024-03-23T12:41:58;3.08;;;1.30;;
53545;SDS011;39432;51.902;10.844;2024-03-23T12:44:24;2.97;;;1.35;;
53545;SDS011;39432;51.902;10.844;2024-03-23T12:46:52;4.47;;;1.40;;
53545;SDS011;39432;51.902;10.844;2024-03-23T12:49:20;7.05;;;1.35;;
53545;SDS011;39432;51.902;10.844;2024-03-23T12:51:48;4.82;;;1.50;;
53545;SDS011;39432;51.902;10.844;2024-03-23T12:54:19;3.38;;;1.40;;
53545;SDS011;39432;51.902;10.844;2024-03-23T12:56:46;5.18;;;1.17;;
53545;SDS011;39432;51.902;10.844;2024-03-23T12:59:15;2.83;;;1.05;;
53545;SDS011;39432;51.902;10.844;2024-03-23T13:01:42;5.38;;;1.17;;
53545;SDS011;39432;51.902;10.844;2024-03-23T13:04:11;4.28;;;1.70;;
53545;SDS011;39432;51.902;10.844;2024-03-23T13:06:40;6.93;;;1.27;;
53545;SDS011;39432;51.902;10.844;2024-03-23T13:09:06;2.95;;;1.23;;
53545;SDS011;39432;51.902;10.844;2024-03-23T13:11:33;4.90;;;1.80;;
53545;SDS011;39432;51.902;10.844;2024-03-23T13:14:05;4.07;;;1.85;;
53545;SDS011;39432;51.902;10.844;2024-03-23T13:16:35;5.38;;;1.65;;
53545;SDS011;39432;51.902;10.844;2024-03-23T13:19:03;3.60;;;1.50;;
53545;SDS011;39432;51.902;10.844;2024-03-23T13:21:29;15.25;;;2.00;;
53545;SDS011;39432;51.902;10.844;2024-03-23T13:23:56;3.53;;;1.23;;
53545;SDS011;39432;51.902;10.844;2024-03-23T13:26:23;4.97;;;2.22;;
53545;SDS011;39432;51.902;10.844;2024-03-23T13:28:50;4.75;;;2.05;;
53545;SDS011;39432;51.902;10.844;2024-03-23T13:31:18;6.40;;;1.50;;
53545;SDS011;39432;51.902;10.844;2024-03-23T13:33:49;3.75;;;1.27;;
53545;SDS011;39432;51.902;10.844;2024-03-23T13:36:17;3.10;;;1.27;;
53545;SDS011;39432;51.902;10.844;2024-03-23T13:38:44;2.58;;;1.30;;
53545;SDS011;39432;51.902;10.844;2024-03-23T13:41:12;3.15;;;1.17;;
53545;SDS011;39432;51.902;10.844;2024-03-23T13:43:40;3.28;;;1.50;;
53545;SDS011;39432;51.902;10.844;2024-03-23T13:46:07;2.33;;;1.05;;
53545;SDS011;39432;51.902;10.844;2024-03-23T13:48:34;4.10;;;1.73;;
53545;SDS011;39432;51.902;10.844;2024-03-23T13:51:03;2.33;;;0.90;;
53545;SDS011;39432;51.902;10.844;2024-03-23T13:53:34;2.40;;;1.33;;
53545;SDS011;39432;51.902;10.844;2024-03-23T13:56:00;3.30;;;1.10;;
53545;SDS011;39432;51.902;10.844;2024-03-23T13:58:28;2.08;;;1.10;;
53545;SDS011;39432;51.902;10.844;2024-03-23T14:00:56;3.33;;;1.15;;
53545;SDS011;39432;51.902;10.844;2024-03-23T14:03:23;5.32;;;3.85;;
53545;SDS011;39432;51.902;10.844;2024-03-23T14:05:50;2.92;;;1.20;;
53545;SDS011;39432;51.902;10.844;2024-03-23T14:08:19;4.38;;;1.40;;
53545;SDS011;39432;51.902;10.844;2024-03-23T14:10:50;2.03;;;0.85;;
53545;SDS011;39432;51.902;10.844;2024-03-23T14:13:18;1.95;;;1.08;;
53545;SDS011;39432;51.902;10.844;2024-03-23T14:15:45;2.38;;;1.58;;
53545;SDS011;39432;51.902;10.844;2024-03-23T14:18:14;2.90;;;1.13;;
53545;SDS011;39432;51.902;10.844;2024-03-23T14:20:41;2.28;;;0.95;;
53545;SDS011;39432;51.902;10.844;2024-03-23T14:23:08;1.90;;;0.85;;
53545;SDS011;39432;51.902;10.844;2024-03-23T14:25:40;2.10;;;0.90;;
53545;SDS011;39432;51.902;10.844;2024-03-23T14:28:07;2.55;;;0.80;;
53545;SDS011;39432;51.902;10.844;2024-03-23T14:30:33;2.63;;;1.10;;
53545;SDS011;39432;51.902;10.844;2024-03-23T14:33:03;2.03;;;1.17;;
53545;SDS011;39432;51.902;10.844;2024-03-23T14:35:30;2.10;;;1.02;;
53545;SDS011;39432;51.902;10.844;2024-03-23T14:37:59;3.45;;;1.40;;
53545;SDS011;39432;51.902;10.844;2024-03-23T14:40:26;4.43;;;1.00;;
53545;SDS011;39432;51.902;10.844;2024-03-23T14:42:56;6.22;;;1.45;;
53545;SDS011;39432;51.902;10.844;2024-03-23T14:45:23;2.10;;;1.00;;
53545;SDS011;39432;51.902;10.844;2024-03-23T14:47:50;5.72;;;1.20;;
53545;SDS011;39432;51.902;10.844;2024-03-23T14:50:17;1.60;;;0.90;;
53545;SDS011;39432;51.902;10.844;2024-03-23T14:52:47;7.03;;;1.50;;
53545;SDS011;39432;51.902;10.844;2024-03-23T14:55:13;4.40;;;1.02;;
53545;SDS011;39432;51.902;10.844;2024-03-23T14:57:40;3.05;;;1.20;;
53545;SDS011;39432;51.902;10.844;2024-03-23T15:00:10;4.35;;;1.00;;
53545;SDS011;39432;51.902;10.844;2024-03-23T15:02:39;4.57;;;1.23;;
53545;SDS011;39432;51.902;10.844;2024-03-23T15:05:06;4.97;;;1.40;;
53545;SDS011;39432;51.902;10.844;2024-03-23T15:07:35;5.32;;;1.40;;
53545;SDS011;39432;51.902;10.844;2024-03-23T15:10:01;1.83;;;0.93;;
53545;SDS011;39432;51.902;10.844;2024-03-23T15:12:28;3.60;;;1.40;;
53545;SDS011;39432;51.902;10.844;2024-03-23T15:14:54;4.30;;;1.13;;
53545;SDS011;39432;51.902;10.844;2024-03-23T15:17:23;2.80;;;1.10;;
53545;SDS011;39432;51.902;10.844;2024-03-23T15:19:50;2.63;;;1.00;;
53545;SDS011;39432;51.902;10.844;2024-03-23T15:22:17;0.95;;;0.70;;
53545;SDS011;39432;51.902;10.844;2024-03-23T15:24:44;1.45;;;0.70;;
53545;SDS011;39432;51.902;10.844;2024-03-23T15:27:10;6.07;;;0.90;;
53545;SDS011;39432;51.902;10.844;2024-03-23T15:29:39;1.23;;;0.80;;
53545;SDS011;39432;51.902;10.844;2024-03-23T15:32:05;1.73;;;0.80;;
53545;SDS011;39432;51.902;10.844;2024-03-23T15:34:38;3.00;;;0.88;;
53545;SDS011;39432;51.902;10.844;2024-03-23T15:37:06;2.00;;;1.15;;